TAF and METAR

Decoding for American and Canadian METARs and TAFs is not fully implemented.

Could not understand the following METAR

CYKJ 011000Z AUTO 17006KT 140V200 9SM FEW060 OVC078 M25/M31 A2991 RMK SLP193

TAF for Key Lake Airport

TAF CYKJ 010938Z 0110/0122 16006KT P6SM OVC100 TEMPO 0110/0112 5SM -SN OVC040 FM011200 16008KT 6SM -SN SCT020 OVC040 TEMPO 0112/0122 2SM -SN OVC020 RMK FCST BASED ON AUTO OBS. NXT FCST BY 011300Z
Report created 1. mar 10:38

between 1. mar 11:00 - 1. mar 23:00

wind 6 knots from SSE (160°)